createdAt,value
2019-05-09T00:02:10.497Z,24.80
2019-05-09T00:05:05.117Z,24.80
2019-05-09T00:07:59.274Z,24.80
2019-05-09T00:10:54.173Z,24.70
2019-05-09T00:13:47.495Z,24.70
2019-05-09T00:16:40.549Z,24.70
2019-05-09T00:19:34.228Z,24.70
2019-05-09T00:22:27.603Z,24.70
2019-05-09T00:25:23.623Z,24.70
2019-05-09T00:28:16.141Z,24.80
2019-05-09T00:31:27.265Z,24.70
2019-05-09T00:34:34.968Z,24.60
2019-05-09T00:37:45.605Z,24.60
2019-05-09T00:40:52.371Z,24.60
2019-05-09T00:43:34.218Z,24.50
2019-05-09T00:46:45.901Z,24.60
2019-05-09T00:49:40.539Z,24.60
2019-05-09T00:52:34.992Z,24.70
2019-05-09T00:55:28.113Z,24.80
2019-05-09T00:58:21.370Z,25.40
2019-05-09T01:01:15.473Z,25.90
2019-05-09T01:04:09.085Z,26.30
2019-05-09T01:07:03.480Z,26.60
2019-05-09T01:09:56.289Z,26.90
2019-05-09T01:12:49.559Z,27.10
2019-05-09T01:15:44.018Z,27.30
2019-05-09T01:18:40.252Z,27.40
2019-05-09T01:21:34.130Z,27.60
2019-05-09T01:24:28.068Z,27.80
2019-05-09T01:27:23.349Z,27.90
2019-05-09T01:30:17.543Z,28.10
2019-05-09T01:33:29.282Z,28.20
2019-05-09T01:36:23.514Z,28.40
2019-05-09T01:39:17.886Z,28.40
2019-05-09T01:42:13.388Z,28.40
2019-05-09T01:45:07.010Z,28.40
2019-05-09T01:48:03.283Z,28.40
2019-05-09T01:50:58.462Z,28.50
2019-05-09T01:53:55.285Z,28.50
2019-05-09T01:56:49.885Z,28.60
2019-05-09T01:59:45.269Z,28.60
2019-05-09T02:02:40.838Z,28.60
2019-05-09T02:05:34.046Z,28.60
2019-05-09T02:08:27.963Z,28.70
2019-05-09T02:11:23.858Z,28.90
2019-05-09T02:14:19.575Z,29.00
2019-05-09T02:17:26.030Z,29.20
2019-05-09T02:20:20.352Z,29.30
2019-05-09T02:23:14.381Z,29.40
2019-05-09T02:26:08.706Z,29.40
2019-05-09T02:29:03.270Z,29.50
2019-05-09T02:31:55.714Z,29.60
2019-05-09T02:34:49.263Z,29.60
2019-05-09T02:37:41.663Z,29.60
2019-05-09T02:40:35.494Z,29.70
2019-05-09T02:43:29.143Z,29.70
2019-05-09T02:46:29.431Z,29.80
2019-05-09T02:49:22.875Z,29.80
2019-05-09T02:52:19.432Z,29.80
2019-05-09T02:55:10.502Z,29.90
2019-05-09T02:58:04.453Z,29.90
2019-05-09T03:01:31.611Z,30.00
2019-05-09T03:04:24.635Z,29.90
2019-05-09T03:07:19.010Z,30.00
2019-05-09T03:10:13.009Z,29.90
2019-05-09T03:13:08.683Z,29.80
2019-05-09T03:16:03.551Z,29.70
2019-05-09T03:18:58.446Z,29.70
2019-05-09T03:21:59.385Z,29.70
2019-05-09T03:24:52.308Z,29.70
2019-05-09T03:27:48.449Z,29.70
2019-05-09T03:30:43.567Z,29.70
2019-05-09T03:33:45.299Z,29.80
2019-05-09T03:36:38.560Z,29.80
2019-05-09T03:39:31.200Z,29.80
2019-05-09T03:42:38.170Z,29.40
2019-05-09T03:45:23.110Z,29.00
2019-05-09T03:48:25.039Z,28.80
2019-05-09T03:51:23.254Z,28.70
2019-05-09T03:54:18.464Z,28.60
2019-05-09T03:57:19.688Z,28.40
2019-05-09T04:00:13.314Z,28.30
2019-05-09T04:03:08.735Z,28.20
2019-05-09T04:06:03.072Z,28.20
2019-05-09T04:08:58.283Z,28.10
2019-05-09T04:11:51.823Z,28.00
2019-05-09T04:14:47.985Z,27.90
2019-05-09T04:17:47.537Z,27.90
2019-05-09T04:20:41.826Z,27.90
2019-05-09T04:23:37.680Z,27.90
2019-05-09T04:26:38.410Z,27.80
2019-05-09T04:29:32.713Z,27.80
2019-05-09T04:32:27.758Z,27.70
2019-05-09T04:35:21.321Z,27.70
2019-05-09T04:38:14.621Z,27.60
2019-05-09T04:41:08.248Z,27.60
2019-05-09T04:44:05.166Z,27.60
2019-05-09T04:47:00.062Z,27.60
2019-05-09T04:49:51.704Z,27.60
2019-05-09T04:53:03.635Z,27.50
2019-05-09T04:56:24.660Z,27.90
2019-05-09T05:04:07.729Z,28.80
2019-05-09T05:05:54.702Z,29.10
2019-05-09T05:09:03.065Z,29.30
2019-05-09T05:16:08.075Z,29.50
2019-05-09T05:19:04.581Z,29.60
2019-05-09T05:22:08.741Z,29.70
2019-05-09T05:25:17.865Z,29.80
2019-05-09T05:28:17.683Z,29.80
2019-05-09T05:31:13.034Z,29.90
2019-05-09T05:34:10.971Z,30.00
2019-05-09T05:37:07.516Z,30.10
2019-05-09T05:40:03.700Z,30.10
2019-05-09T05:43:02.348Z,30.20
2019-05-09T05:46:22.198Z,30.20
2019-05-09T05:49:18.658Z,30.30
2019-05-09T05:52:18.717Z,30.40
2019-05-09T05:55:13.249Z,30.20
2019-05-09T05:58:08.645Z,29.80
2019-05-09T06:01:04.625Z,29.80
2019-05-09T06:03:58.623Z,29.70
2019-05-09T06:07:39.744Z,29.60
2019-05-09T06:10:37.982Z,29.60
2019-05-09T06:13:54.448Z,29.50
2019-05-09T06:16:44.947Z,29.40
2019-05-09T06:19:49.665Z,29.40
2019-05-09T06:22:47.686Z,29.50
2019-05-09T06:25:43.087Z,29.50
2019-05-09T10:45:42.650Z,32.20
2019-05-09T10:48:41.411Z,32.20
2019-05-09T10:51:38.061Z,32.20
2019-05-09T10:54:33.501Z,32.20
2019-05-09T10:57:31.779Z,32.20
2019-05-09T11:00:28.822Z,32.20
2019-05-09T11:03:21.280Z,32.20
2019-05-09T11:06:18.299Z,32.30
2019-05-09T11:09:13.238Z,32.30
2019-05-09T11:12:11.660Z,32.30
2019-05-09T11:15:04.928Z,32.30
2019-05-09T11:18:00.474Z,32.30
2019-05-09T11:20:58.131Z,32.30
2019-05-09T11:23:58.409Z,32.40
2019-05-09T11:26:58.611Z,32.40
2019-05-09T11:29:52.949Z,32.40
2019-05-09T11:32:53.112Z,32.30
2019-05-09T11:35:49.542Z,32.30
2019-05-09T11:38:45.129Z,32.40
2019-05-09T11:41:39.851Z,32.40
2019-05-09T11:44:35.617Z,32.40
2019-05-09T11:47:39.484Z,32.30
2019-05-09T11:50:31.464Z,32.40
2019-05-09T11:53:28.849Z,32.40
2019-05-09T11:56:23.374Z,32.30
2019-05-09T11:59:20.008Z,32.30
2019-05-09T12:02:21.956Z,32.30
2019-05-09T12:05:19.140Z,32.30
2019-05-09T12:08:41.572Z,32.30
2019-05-09T12:11:44.221Z,32.30
2019-05-09T12:18:37.834Z,32.40
2019-05-09T12:21:30.652Z,32.40
2019-05-09T12:24:31.833Z,32.40
2019-05-09T12:27:36.343Z,32.30
2019-05-09T12:30:34.218Z,32.40
2019-05-09T12:33:33.479Z,32.40
2019-05-09T12:36:28.621Z,32.40
2019-05-09T12:39:27.514Z,32.40
2019-05-09T12:42:21.175Z,32.40
2019-05-09T12:45:30.498Z,32.40
2019-05-09T12:48:23.134Z,32.40
2019-05-09T12:51:18.564Z,32.30
2019-05-09T12:54:19.302Z,32.20
2019-05-09T12:57:28.714Z,32.20
2019-05-09T13:00:20.339Z,32.20
2019-05-09T13:03:38.456Z,32.20
2019-05-09T13:10:01.331Z,32.20
2019-05-09T13:12:57.091Z,32.20
2019-05-09T13:16:05.264Z,32.20
2019-05-09T13:19:08.914Z,32.30
2019-05-09T13:22:01.760Z,32.40
2019-05-09T13:24:54.345Z,32.30
2019-05-09T13:27:47.843Z,32.40
2019-05-09T13:30:43.146Z,32.40
2019-05-09T13:33:41.325Z,32.40
2019-05-09T13:36:33.079Z,32.30
2019-05-09T13:39:27.975Z,32.40
2019-05-09T13:42:20.809Z,32.30
2019-05-09T13:45:13.821Z,32.40
2019-05-09T13:48:23.829Z,32.40
2019-05-09T13:51:00.952Z,32.40
2019-05-09T13:53:54.038Z,32.40
2019-05-09T13:56:52.957Z,32.40
2019-05-09T13:59:41.407Z,32.30
2019-05-09T14:02:38.365Z,32.20
2019-05-09T14:06:02.201Z,32.20
2019-05-09T14:08:54.996Z,32.10
2019-05-09T14:12:28.929Z,32.10
2019-05-09T14:15:23.495Z,32.10
2019-05-09T14:18:16.652Z,32.10
2019-05-09T14:22:08.259Z,32.10
2019-05-09T14:25:01.405Z,32.00
2019-05-09T14:27:54.311Z,32.00
2019-05-09T14:30:48.333Z,31.90
2019-05-09T14:33:42.777Z,31.90
2019-05-09T14:36:38.551Z,31.90
2019-05-09T14:39:29.747Z,31.90
2019-05-09T14:42:23.564Z,31.90
2019-05-09T14:45:18.140Z,31.90
2019-05-09T14:48:12.417Z,31.90
2019-05-09T14:51:07.601Z,31.90
2019-05-09T14:54:02.648Z,31.90
2019-05-09T14:56:58.360Z,31.90
2019-05-09T14:59:51.315Z,31.90
2019-05-09T15:02:44.793Z,31.90
2019-05-09T15:05:37.935Z,31.80
2019-05-09T15:08:31.707Z,31.80
2019-05-09T15:11:24.471Z,31.80
2019-05-09T15:14:19.699Z,31.80
2019-05-09T15:17:12.677Z,31.80
2019-05-09T15:20:08.740Z,31.80
2019-05-09T15:23:01.253Z,31.80
2019-05-09T15:25:54.067Z,31.80
2019-05-09T15:28:48.312Z,31.80
2019-05-09T15:31:41.719Z,31.80
2019-05-09T15:34:34.666Z,31.80
2019-05-09T15:37:28.613Z,31.80
2019-05-09T15:40:21.573Z,31.80
2019-05-09T15:43:18.359Z,31.80
2019-05-09T15:46:18.600Z,31.80
2019-05-09T15:49:11.017Z,31.80
2019-05-09T15:52:08.375Z,31.80
2019-05-09T15:55:03.943Z,31.80
2019-05-09T15:57:57.597Z,31.70
2019-05-09T16:00:50.609Z,31.80
2019-05-09T16:03:43.373Z,31.70
2019-05-09T16:06:39.159Z,31.80
2019-05-09T16:09:33.152Z,31.80
2019-05-09T16:12:27.774Z,31.70
2019-05-09T16:15:21.379Z,31.80
2019-05-09T16:18:15.024Z,31.80
2019-05-09T16:21:08.621Z,31.70
2019-05-09T16:24:02.095Z,31.70
2019-05-09T16:26:57.691Z,31.70
2019-05-09T16:29:51.493Z,31.70
2019-05-09T16:32:44.350Z,31.70
2019-05-09T16:35:38.196Z,31.70
2019-05-09T16:38:45.125Z,31.70
2019-05-09T16:41:32.079Z,31.70
2019-05-09T16:44:25.297Z,31.70
2019-05-09T16:47:21.697Z,31.70
2019-05-09T16:50:17.733Z,31.80
2019-05-09T16:53:11.138Z,31.70
2019-05-09T16:56:04.563Z,31.70
2019-05-09T16:58:57.852Z,31.70
2019-05-09T17:01:52.055Z,31.70
2019-05-09T17:04:46.037Z,31.70
2019-05-09T17:07:39.871Z,31.70
2019-05-09T17:10:32.945Z,31.70
2019-05-09T17:13:28.585Z,31.70
2019-05-09T17:16:19.970Z,31.70
2019-05-09T17:19:12.968Z,31.70
2019-05-09T17:22:21.633Z,31.70
2019-05-09T17:25:15.265Z,31.70
2019-05-09T17:28:09.904Z,31.70
2019-05-09T17:31:02.888Z,31.70
2019-05-09T17:33:57.930Z,31.70
2019-05-09T17:36:52.953Z,31.70
2019-05-09T17:39:45.708Z,31.70
2019-05-09T17:42:39.410Z,31.70
2019-05-09T17:45:38.457Z,31.70
2019-05-09T17:48:29.020Z,31.70
2019-05-09T17:51:32.610Z,31.70
2019-05-09T17:54:18.274Z,31.70
2019-05-09T17:57:11.000Z,30.80
2019-05-09T18:00:04.429Z,30.30
2019-05-09T18:03:00.104Z,29.70
2019-05-09T18:05:53.970Z,29.10
2019-05-09T18:08:50.347Z,28.90
2019-05-09T18:11:43.548Z,28.60
2019-05-09T18:14:38.130Z,28.50
2019-05-09T18:17:30.528Z,28.40
2019-05-09T18:20:23.463Z,28.20
2019-05-09T18:23:17.681Z,28.10
2019-05-09T18:26:10.781Z,27.90
2019-05-09T18:29:06.902Z,27.90
2019-05-09T18:32:34.945Z,27.80
2019-05-09T18:35:28.774Z,27.80
2019-05-09T18:38:29.920Z,27.70
2019-05-09T18:41:22.792Z,27.60
2019-05-09T18:44:18.120Z,27.50
2019-05-09T18:47:09.677Z,27.50
2019-05-09T18:50:02.669Z,27.40
2019-05-09T18:52:55.724Z,27.40
2019-05-09T18:55:48.536Z,27.40
2019-05-09T18:58:41.900Z,27.30
2019-05-09T19:01:34.567Z,27.10
2019-05-09T19:04:28.338Z,27.10
2019-05-09T19:07:23.003Z,27.00
2019-05-09T19:10:15.898Z,27.00
2019-05-09T19:13:08.696Z,26.90
2019-05-09T19:16:18.593Z,26.90
2019-05-09T19:19:18.620Z,26.90
2019-05-09T19:22:21.925Z,26.80
2019-05-09T19:25:09.102Z,26.80
2019-05-09T19:28:02.064Z,26.70
2019-05-09T19:30:57.737Z,26.60
2019-05-09T19:33:54.305Z,26.60
2019-05-09T19:36:46.735Z,26.60
2019-05-09T19:39:46.614Z,26.60
2019-05-09T19:43:07.591Z,26.60
2019-05-09T19:46:11.965Z,26.60
2019-05-09T19:49:07.724Z,26.50
2019-05-09T19:52:36.221Z,26.50
2019-05-09T19:58:58.708Z,26.40
2019-05-09T20:01:52.101Z,26.30
2019-05-09T20:05:00.082Z,26.30
2019-05-09T20:08:01.255Z,26.20
2019-05-09T20:11:33.290Z,26.20
2019-05-09T20:15:01.045Z,26.20
2019-05-09T20:17:56.529Z,26.10
2019-05-09T20:20:49.265Z,26.10
2019-05-09T20:23:45.740Z,26.00
2019-05-09T20:26:47.445Z,25.80
2019-05-09T20:29:44.263Z,25.80
2019-05-09T20:32:40.373Z,25.80
2019-05-09T20:35:33.086Z,25.90
2019-05-09T20:38:30.894Z,26.00
2019-05-09T20:41:26.332Z,26.10
2019-05-09T20:44:22.038Z,26.10
2019-05-09T20:47:15.757Z,26.10
2019-05-09T20:50:11.694Z,25.90
2019-05-09T20:53:09.746Z,25.80
2019-05-09T20:56:01.182Z,25.80
2019-05-09T20:58:57.054Z,25.80
2019-05-09T21:01:56.237Z,25.70
2019-05-09T21:04:47.920Z,25.70
2019-05-09T21:07:40.933Z,25.70
2019-05-09T21:10:33.526Z,25.70
2019-05-09T21:13:26.245Z,25.70
2019-05-09T21:16:19.110Z,25.60
2019-05-09T21:19:13.660Z,25.70
2019-05-09T21:22:06.718Z,25.80
2019-05-09T21:24:59.876Z,25.70
2019-05-09T21:27:52.534Z,25.70
2019-05-09T21:30:46.686Z,25.80
2019-05-09T21:33:39.819Z,25.70
2019-05-09T21:36:32.510Z,25.70
2019-05-09T21:39:26.670Z,25.80
2019-05-09T21:42:19.278Z,25.80
2019-05-09T21:45:11.956Z,25.70
2019-05-09T21:48:04.593Z,25.70
2019-05-09T21:50:57.240Z,25.70
2019-05-09T21:53:49.898Z,25.60
2019-05-09T21:56:44.207Z,25.60
2019-05-09T21:59:36.752Z,25.60
2019-05-09T22:02:29.557Z,25.60
2019-05-09T22:05:22.282Z,25.60
2019-05-09T22:08:19.426Z,25.60
2019-05-09T22:11:14.689Z,25.50
2019-05-09T22:14:09.816Z,25.40
2019-05-09T22:17:07.463Z,25.40
2019-05-09T22:20:02.536Z,25.50
2019-05-09T22:22:55.026Z,25.40
2019-05-09T22:25:48.481Z,25.40
2019-05-09T22:28:41.059Z,25.40
2019-05-09T22:31:34.042Z,25.30
2019-05-09T22:34:26.695Z,25.40
2019-05-09T22:37:19.542Z,25.50
2019-05-09T22:40:17.964Z,25.30
2019-05-09T22:43:11.417Z,25.30
2019-05-09T22:46:03.845Z,25.30
2019-05-09T22:48:57.212Z,25.30
2019-05-09T22:51:50.762Z,25.20
2019-05-09T22:54:46.610Z,25.20
2019-05-09T22:57:40.090Z,25.20
2019-05-09T23:00:36.850Z,25.30
2019-05-09T23:03:29.311Z,25.20
2019-05-09T23:06:21.961Z,25.20
2019-05-09T23:09:16.870Z,25.20
2019-05-09T23:12:16.955Z,25.30
2019-05-09T23:15:11.521Z,25.30
2019-05-09T23:18:04.182Z,25.20
2019-05-09T23:20:59.596Z,25.30
2019-05-09T23:23:55.706Z,25.30
2019-05-09T23:26:49.276Z,25.30
2019-05-09T23:29:42.410Z,25.20
2019-05-09T23:32:46.872Z,25.10
2019-05-09T23:35:39.867Z,25.20
2019-05-09T23:38:32.851Z,25.20
2019-05-09T23:41:26.285Z,25.20
2019-05-09T23:44:20.038Z,25.10
2019-05-09T23:47:12.591Z,25.10
2019-05-09T23:50:08.036Z,25.20
2019-05-09T23:53:00.934Z,25.20
2019-05-09T23:56:10.260Z,25.10
2019-05-09T23:59:19.397Z,25.10
